createdAt,value
2022-08-04T00:00:04.462Z,95504.03
2022-08-04T00:02:59.478Z,95497.22
2022-08-04T00:06:10.473Z,95505.91
2022-08-04T00:08:46.611Z,95500.91
2022-08-04T00:11:37.488Z,95499.25
2022-08-04T00:14:17.605Z,95505.31
2022-08-04T00:17:04.480Z,95499.31
2022-08-04T00:19:47.544Z,95497.72
2022-08-04T00:22:36.500Z,95495.34
2022-08-04T00:25:12.559Z,95495.41
2022-08-04T00:28:00.483Z,95501.44
2022-08-04T00:30:33.554Z,95506.69
2022-08-04T00:33:32.483Z,95504.19
2022-08-04T00:36:20.494Z,95502.69
2022-08-04T00:38:54.596Z,95499.47
2022-08-04T00:42:07.501Z,95503.06
2022-08-04T00:45:15.563Z,95508.25
2022-08-04T00:48:23.521Z,95500.63
2022-08-04T00:51:48.503Z,95503.22
2022-08-04T00:55:14.514Z,95506.75
2022-08-04T00:58:28.506Z,95509.41
2022-08-04T01:01:23.554Z,95500.03
2022-08-04T01:04:33.490Z,95503.66
2022-08-04T01:07:29.536Z,95508.13
2022-08-04T01:10:07.757Z,95508.06
2022-08-04T01:13:03.541Z,95511.47
2022-08-04T01:15:56.511Z,95512.44
2022-08-04T01:19:05.505Z,95509.00
2022-08-04T01:22:16.510Z,95513.41
2022-08-04T01:25:14.505Z,95517.78
2022-08-04T01:28:37.970Z,95518.81
2022-08-04T01:31:58.527Z,95513.75
2022-08-04T01:34:43.526Z,95510.38
2022-08-04T01:37:41.508Z,95501.03
2022-08-04T01:40:22.517Z,95504.56
2022-08-04T01:43:17.516Z,95497.03
2022-08-04T01:46:06.524Z,95498.03
2022-08-04T01:48:44.609Z,95498.09
2022-08-04T01:51:31.511Z,95508.47
2022-08-04T01:54:05.609Z,95500.81
2022-08-04T01:56:56.555Z,95504.38
2022-08-04T01:59:31.670Z,95495.84
2022-08-04T02:02:18.637Z,95501.94
2022-08-04T02:04:52.242Z,95495.97
2022-08-04T02:07:53.544Z,95496.94
2022-08-04T02:10:48.651Z,95489.34
2022-08-04T02:13:46.546Z,95492.78
2022-08-04T02:16:44.600Z,95492.06
2022-08-04T02:19:42.549Z,95497.38
2022-08-04T02:22:22.628Z,95488.84
2022-08-04T02:25:15.562Z,95487.16
2022-08-04T02:28:21.655Z,95492.41
2022-08-04T02:31:14.560Z,95486.44
2022-08-04T02:33:58.634Z,95486.50
2022-08-04T02:36:47.546Z,95484.00
2022-08-04T02:39:25.754Z,95485.78
2022-08-04T02:42:12.562Z,95480.66
2022-08-04T02:44:46.632Z,95485.91
2022-08-04T02:48:28.769Z,95481.69
2022-08-04T02:50:37.576Z,95479.22
2022-08-04T02:53:21.559Z,95480.19
2022-08-04T02:56:07.546Z,95481.06
2022-08-04T02:58:42.662Z,95477.66
2022-08-04T03:01:30.630Z,95480.38
2022-08-04T03:04:24.722Z,95483.88
2022-08-04T03:08:06.547Z,95480.56
2022-08-04T03:11:12.576Z,95477.19
2022-08-04T03:14:01.649Z,95489.25
2022-08-04T03:17:23.695Z,95481.59
2022-08-04T03:20:31.574Z,95484.22
2022-08-04T03:24:20.010Z,95481.75
2022-08-04T03:27:17.573Z,95482.69
2022-08-04T03:30:14.041Z,95489.50
2022-08-04T03:33:38.573Z,95486.06
2022-08-04T03:36:55.618Z,95487.75
2022-08-04T03:39:58.571Z,95495.59
2022-08-04T03:42:50.612Z,95491.34
2022-08-04T03:45:39.592Z,95497.44
2022-08-04T03:49:10.596Z,95491.50
2022-08-04T03:52:53.599Z,95489.81
2022-08-04T03:55:58.612Z,95494.97
2022-08-04T03:58:50.584Z,95490.66
2022-08-04T04:02:02.450Z,95493.25
2022-08-04T04:05:17.592Z,95497.66
2022-08-04T04:08:46.633Z,95496.72
2022-08-04T04:11:55.468Z,95503.56
2022-08-04T04:15:07.636Z,95497.53
2022-08-04T04:18:38.610Z,95498.41
2022-08-04T04:21:35.608Z,95505.25
2022-08-04T04:24:50.616Z,95494.97
2022-08-04T04:28:44.488Z,95491.50
2022-08-04T04:31:25.616Z,95497.47
2022-08-04T04:34:26.612Z,95500.03
2022-08-04T04:37:31.623Z,95501.72
2022-08-04T04:40:45.601Z,95499.03
2022-08-04T04:43:52.312Z,95498.88
2022-08-04T04:46:49.606Z,95508.91
2022-08-04T04:49:56.621Z,95502.56
2022-08-04T04:52:49.619Z,95505.59
2022-08-04T04:55:32.706Z,95503.50
2022-08-04T04:58:24.613Z,95510.81
2022-08-04T05:01:33.640Z,95508.63
2022-08-04T05:04:41.630Z,95508.13
2022-08-04T05:07:17.728Z,95504.28
2022-08-04T05:10:21.624Z,95507.22
2022-08-04T05:14:34.835Z,95503.34
2022-08-04T05:16:52.624Z,95506.97
2022-08-04T05:20:05.619Z,95504.00
2022-08-04T05:23:01.638Z,95499.13
2022-08-04T05:26:05.717Z,95498.53
2022-08-04T05:29:00.638Z,95501.44
2022-08-04T05:31:49.639Z,95507.84
2022-08-04T05:34:48.634Z,95509.84
2022-08-04T05:37:38.664Z,95500.63
2022-08-04T05:40:13.740Z,95503.53
2022-08-04T05:43:02.631Z,95502.13
2022-08-04T05:45:43.666Z,95503.31
2022-08-04T05:48:31.635Z,95506.22
2022-08-04T05:51:05.709Z,95503.91
2022-08-04T05:53:53.651Z,95516.25
2022-08-04T05:56:26.792Z,95506.19
2022-08-04T05:59:14.674Z,95510.84
2022-08-04T06:01:57.544Z,95512.03
2022-08-04T06:04:53.659Z,95510.56
2022-08-04T06:08:12.169Z,95520.28
2022-08-04T06:10:55.654Z,95510.09
2022-08-04T06:13:49.448Z,95512.97
2022-08-04T06:16:51.397Z,95513.25
2022-08-04T06:20:01.201Z,95502.28
2022-08-04T06:22:36.657Z,95505.13
2022-08-04T06:25:12.822Z,95507.09
2022-08-04T06:28:01.663Z,95508.09
2022-08-04T06:30:37.746Z,95505.63
2022-08-04T06:33:55.041Z,95513.59
2022-08-04T06:36:50.666Z,95509.38
2022-08-04T06:39:46.805Z,95513.06
2022-08-04T06:42:42.675Z,95514.13
2022-08-04T06:45:38.709Z,95508.31
2022-08-04T06:48:33.110Z,95511.06
2022-08-04T06:51:28.278Z,95504.25
2022-08-04T06:54:21.685Z,95507.00
2022-08-04T06:56:56.758Z,95513.16
2022-08-04T06:59:43.703Z,95498.66
2022-08-04T07:02:21.776Z,95499.78
2022-08-04T07:05:08.706Z,95499.28
2022-08-04T07:07:56.948Z,95503.06
2022-08-04T07:10:45.676Z,95502.75
2022-08-04T07:13:26.716Z,95497.81
2022-08-04T07:16:14.724Z,95501.53
2022-08-04T07:18:47.795Z,95503.44
2022-08-04T07:21:34.706Z,95502.66
2022-08-04T07:24:07.812Z,95500.47
2022-08-04T07:26:57.708Z,95497.34
2022-08-04T07:29:31.793Z,95500.09
2022-08-04T07:32:20.750Z,95501.41
2022-08-04T07:35:02.706Z,95496.81
2022-08-04T07:37:56.734Z,95505.41
2022-08-04T07:40:46.731Z,95501.81
2022-08-04T07:43:22.842Z,95504.41
2022-08-04T07:46:09.716Z,95504.31
2022-08-04T07:48:42.800Z,95491.47
2022-08-04T07:51:29.734Z,95499.97
2022-08-04T07:54:05.072Z,95495.84
2022-08-04T07:56:46.749Z,95496.38
2022-08-04T07:59:26.807Z,95491.97
2022-08-04T08:02:07.728Z,95490.47
2022-08-04T08:04:47.734Z,95484.75
2022-08-04T08:07:21.006Z,95490.91
2022-08-04T08:10:07.754Z,95489.44
2022-08-04T08:12:51.411Z,95483.91
2022-08-04T08:15:32.716Z,95493.19
2022-08-04T08:18:12.760Z,95494.91
2022-08-04T08:20:46.342Z,95492.41
2022-08-04T08:23:32.741Z,95497.94
2022-08-04T08:26:06.843Z,95494.44
2022-08-04T08:28:53.760Z,95499.16
2022-08-04T08:31:55.584Z,95498.72
2022-08-04T08:34:47.738Z,95496.78
2022-08-04T08:37:59.751Z,95502.44
2022-08-04T08:40:54.887Z,95498.03
2022-08-04T08:44:05.367Z,95494.38
2022-08-04T08:47:29.745Z,95490.00
2022-08-04T08:51:08.774Z,95493.84
2022-08-04T08:54:14.746Z,95493.63
2022-08-04T08:57:09.845Z,95493.63
2022-08-04T09:00:14.747Z,95491.75
2022-08-04T09:03:15.878Z,95490.56
2022-08-04T09:06:05.773Z,95490.69
2022-08-04T09:09:03.786Z,95488.25
2022-08-04T09:12:04.778Z,95487.66
2022-08-04T09:15:00.807Z,95481.06
2022-08-04T09:17:45.770Z,95491.88
2022-08-04T09:20:42.781Z,95486.13
2022-08-04T09:23:47.974Z,95479.66
2022-08-04T09:26:45.778Z,95474.50
2022-08-04T09:29:49.798Z,95478.16
2022-08-04T09:33:45.518Z,95478.03
2022-08-04T09:37:00.801Z,95479.09
2022-08-04T09:40:14.675Z,95489.38
2022-08-04T09:43:59.344Z,95486.63
2022-08-04T09:46:48.783Z,95476.81
2022-08-04T09:49:49.863Z,95476.06
2022-08-04T09:52:59.807Z,95466.00
2022-08-04T09:55:53.536Z,95461.00
2022-08-04T09:58:58.791Z,95469.06
2022-08-04T10:01:41.809Z,95461.31
2022-08-04T10:04:36.797Z,95456.38
2022-08-04T10:07:30.816Z,95455.72
2022-08-04T10:10:49.815Z,95450.81
2022-08-04T10:13:42.840Z,95453.34
2022-08-04T10:16:27.912Z,95457.44
2022-08-04T10:19:33.809Z,95459.00
2022-08-04T10:23:09.287Z,95462.44
2022-08-04T10:26:19.838Z,95458.16
2022-08-04T10:29:18.840Z,95463.72
2022-08-04T10:32:07.803Z,95453.63
2022-08-04T10:35:26.831Z,95442.44
2022-08-04T10:38:29.838Z,95441.00
2022-08-04T10:41:07.959Z,95444.78
2022-08-04T10:44:29.829Z,95446.47
2022-08-04T10:47:29.847Z,95444.25
2022-08-04T10:50:26.829Z,95447.09
2022-08-04T10:53:23.846Z,95449.50
2022-08-04T10:56:11.840Z,95442.69
2022-08-04T10:59:02.863Z,95434.97
2022-08-04T11:01:59.598Z,95441.13
2022-08-04T11:04:54.831Z,95434.44
2022-08-04T11:07:28.938Z,95431.81
2022-08-04T11:10:15.834Z,95431.16
2022-08-04T11:12:55.947Z,95432.94
2022-08-04T11:15:51.855Z,95441.13
2022-08-04T11:18:56.873Z,95442.38
2022-08-04T11:21:50.867Z,95440.72
2022-08-04T11:24:36.846Z,95435.34
2022-08-04T11:27:48.850Z,95432.03
2022-08-04T11:30:58.870Z,95435.06
2022-08-04T11:34:07.883Z,95437.78
2022-08-04T11:37:23.717Z,95426.38
2022-08-04T11:40:03.945Z,95428.56
2022-08-04T11:43:01.865Z,95424.78
2022-08-04T11:45:40.962Z,95432.44
2022-08-04T11:48:38.879Z,95424.16
2022-08-04T11:51:12.950Z,95424.97
2022-08-04T11:54:00.867Z,95424.97
2022-08-04T11:56:36.999Z,95420.28
2022-08-04T11:59:28.908Z,95413.53
2022-08-04T12:02:21.442Z,95414.28
2022-08-04T12:05:08.888Z,95421.31
2022-08-04T12:08:08.898Z,95411.97
2022-08-04T12:11:38.928Z,95411.78
2022-08-04T12:14:41.897Z,95408.75
2022-08-04T12:17:52.141Z,95406.56
2022-08-04T12:20:40.640Z,95400.94
2022-08-04T12:23:37.233Z,95399.84
2022-08-04T12:26:20.901Z,95399.22
2022-08-04T12:29:10.491Z,95396.19
2022-08-04T12:31:55.036Z,95401.03
2022-08-04T12:35:01.901Z,95398.81
2022-08-04T12:38:15.906Z,95394.00
2022-08-04T12:40:55.971Z,95393.47
2022-08-04T12:43:49.182Z,95394.63
2022-08-04T12:46:37.917Z,95393.06
2022-08-04T12:49:28.934Z,95390.22
2022-08-04T12:52:10.927Z,95385.94
2022-08-04T12:55:00.914Z,95383.63
2022-08-04T12:57:41.943Z,95375.06
2022-08-04T13:00:42.425Z,95375.47
2022-08-04T13:03:19.733Z,95368.25
2022-08-04T13:06:06.950Z,95371.59
2022-08-04T13:08:43.998Z,95364.28
2022-08-04T13:11:30.919Z,95362.41
2022-08-04T13:14:26.621Z,95363.88
2022-08-04T13:17:22.133Z,95359.97
2022-08-04T13:20:14.922Z,95360.41
2022-08-04T13:22:56.951Z,95352.75
2022-08-04T13:26:44.749Z,95355.69
2022-08-04T13:28:53.935Z,95356.28
2022-08-04T13:31:52.890Z,95352.25
2022-08-04T13:34:52.498Z,95351.56
2022-08-04T13:37:45.931Z,95354.38
2022-08-04T13:40:30.942Z,95338.72
2022-08-04T13:44:15.495Z,95349.25
2022-08-04T13:47:04.951Z,95350.19
2022-08-04T13:49:54.486Z,95343.38
2022-08-04T13:52:48.963Z,95349.66
2022-08-04T13:55:43.062Z,95340.75
2022-08-04T13:58:31.954Z,95342.25
2022-08-04T14:01:17.359Z,95341.19
2022-08-04T14:04:09.952Z,95341.19
2022-08-04T14:06:51.081Z,95336.09
2022-08-04T14:09:39.975Z,95335.44
2022-08-04T14:12:45.433Z,95334.72
2022-08-04T14:16:00.999Z,95332.19
2022-08-04T14:18:39.966Z,95334.09
2022-08-04T14:21:24.066Z,95336.72
2022-08-04T14:24:11.960Z,95333.88
2022-08-04T14:26:51.946Z,95329.47
2022-08-04T14:29:45.979Z,95332.31
2022-08-04T14:32:21.734Z,95328.00
2022-08-04T14:35:26.482Z,95326.56
2022-08-04T14:39:03.004Z,95330.31
2022-08-04T14:41:55.999Z,95327.78
2022-08-04T14:44:36.002Z,95331.97
2022-08-04T14:47:23.033Z,95333.22
2022-08-04T14:50:09.394Z,95322.69
2022-08-04T14:53:04.050Z,95318.28
2022-08-04T14:55:52.997Z,95326.03
2022-08-04T14:58:38.739Z,95326.97
2022-08-04T15:01:26.043Z,95328.00
2022-08-04T15:04:01.140Z,95321.13
2022-08-04T15:06:53.009Z,95328.66
2022-08-04T15:09:27.083Z,95318.53
2022-08-04T15:12:14.015Z,95322.72
2022-08-04T15:14:47.090Z,95326.47
2022-08-04T15:17:34.004Z,95329.38
2022-08-04T15:20:07.605Z,95328.66
2022-08-04T15:22:54.009Z,95324.56
2022-08-04T15:25:27.079Z,95316.94
2022-08-04T15:28:20.018Z,95318.81
2022-08-04T15:31:10.685Z,95321.22
2022-08-04T15:34:16.030Z,95315.16
2022-08-04T15:37:11.022Z,95320.47
2022-08-04T15:40:37.034Z,95318.91
2022-08-04T15:43:55.733Z,95311.28
2022-08-04T15:46:56.049Z,95316.69
2022-08-04T15:49:38.026Z,95308.97
2022-08-04T15:52:32.157Z,95302.19
2022-08-04T15:55:49.047Z,95310.31
2022-08-04T15:58:56.036Z,95302.66
2022-08-04T16:01:30.255Z,95303.72
2022-08-04T16:04:28.032Z,95303.09
2022-08-04T16:07:12.114Z,95302.34
2022-08-04T16:09:52.061Z,95296.38
2022-08-04T16:13:01.468Z,95300.13
2022-08-04T16:15:55.127Z,95292.28
2022-08-04T16:18:42.054Z,95301.16
2022-08-04T16:21:35.033Z,95306.56
2022-08-04T16:24:44.056Z,95305.13
2022-08-04T16:27:26.055Z,95304.38
2022-08-04T16:30:15.156Z,95298.41
2022-08-04T16:32:51.197Z,95296.84
2022-08-04T16:35:45.043Z,95304.03
2022-08-04T16:38:33.077Z,95300.59
2022-08-04T16:41:09.320Z,95312.78
2022-08-04T16:43:56.092Z,95308.59
2022-08-04T16:47:22.200Z,95307.72
2022-08-04T16:50:09.041Z,95305.41
2022-08-04T16:52:57.070Z,95310.84
2022-08-04T16:55:46.058Z,95302.38
2022-08-04T16:58:19.196Z,95302.56
2022-08-04T17:01:32.238Z,95295.13
2022-08-04T17:04:15.094Z,95300.63
2022-08-04T17:07:07.121Z,95297.56
2022-08-04T17:09:47.104Z,95295.16
2022-08-04T17:12:43.085Z,95298.91
2022-08-04T17:15:32.080Z,95302.75
2022-08-04T17:18:22.216Z,95307.31
2022-08-04T17:21:18.069Z,95302.38
2022-08-04T17:24:15.152Z,95302.56
2022-08-04T17:28:09.826Z,95309.75
2022-08-04T17:30:47.952Z,95305.91
2022-08-04T17:33:54.636Z,95305.53
2022-08-04T17:36:37.177Z,95306.00
2022-08-04T17:39:27.136Z,95303.78
2022-08-04T17:42:10.092Z,95310.09
2022-08-04T17:48:24.168Z,95308.97
2022-08-04T17:52:04.929Z,95316.44
2022-08-04T17:54:40.609Z,95315.94
2022-08-04T17:57:27.686Z,95314.44
2022-08-04T18:00:19.331Z,95317.25
2022-08-04T18:03:00.250Z,95320.97
2022-08-04T18:06:02.023Z,95319.53
2022-08-04T18:08:50.091Z,95320.81
2022-08-04T18:11:44.138Z,95329.00
2022-08-04T18:14:54.121Z,95330.19
2022-08-04T18:18:21.726Z,95329.59
2022-08-04T18:21:11.127Z,95344.88
2022-08-04T18:24:06.129Z,95349.53
2022-08-04T18:26:59.140Z,95354.09
2022-08-04T18:29:39.572Z,95350.88
2022-08-04T18:32:34.372Z,95354.59
2022-08-04T18:36:31.401Z,95360.13
2022-08-04T18:42:04.183Z,95367.97
2022-08-04T18:44:52.636Z,95376.16
2022-08-04T18:47:29.741Z,95367.88
2022-08-04T18:50:58.553Z,95372.56
2022-08-04T18:53:17.121Z,95366.94
2022-08-04T18:56:04.177Z,95368.16
2022-08-04T18:58:47.151Z,95376.19
2022-08-04T19:02:15.814Z,95378.94
2022-08-04T19:04:52.304Z,95378.47
2022-08-04T19:07:32.156Z,95379.53
2022-08-04T19:10:26.731Z,95370.28
2022-08-04T19:13:24.883Z,95379.31
2022-08-04T19:16:00.238Z,95380.63
2022-08-04T19:18:47.137Z,95375.00
2022-08-04T19:21:20.278Z,95378.75
2022-08-04T19:24:31.545Z,95375.78
2022-08-04T19:27:14.177Z,95372.50
2022-08-04T19:29:50.235Z,95374.31
2022-08-04T19:32:37.149Z,95372.97
2022-08-04T19:35:14.310Z,95383.56
2022-08-04T19:38:04.075Z,95378.66
2022-08-04T19:40:37.278Z,95383.34
2022-08-04T19:43:17.166Z,95374.25
2022-08-04T19:45:58.186Z,95377.06
2022-08-04T19:48:31.682Z,95373.09
2022-08-04T19:51:18.164Z,95375.28
2022-08-04T19:54:02.740Z,95372.13
2022-08-04T19:56:58.178Z,95371.72
2022-08-04T19:59:48.322Z,95377.38
2022-08-04T20:02:22.262Z,95374.22
2022-08-04T20:05:12.182Z,95376.19
2022-08-04T20:07:46.403Z,95377.41
2022-08-04T20:10:27.194Z,95376.88
2022-08-04T20:13:10.523Z,95372.88
2022-08-04T20:15:57.549Z,95377.56
2022-08-04T20:18:55.482Z,95381.34
2022-08-04T20:21:54.015Z,95377.31
2022-08-04T20:24:40.482Z,95376.84
2022-08-04T20:27:38.609Z,95380.78
2022-08-04T20:30:37.179Z,95380.41
2022-08-04T20:33:13.988Z,95380.66
2022-08-04T20:36:06.685Z,95379.19
2022-08-04T20:38:51.994Z,95379.59
2022-08-04T20:41:46.200Z,95371.25
2022-08-04T20:44:33.247Z,95380.06
2022-08-04T20:47:07.309Z,95378.59
2022-08-04T20:49:54.227Z,95373.63
2022-08-04T20:52:27.352Z,95376.31
2022-08-04T20:55:15.206Z,95378.25
2022-08-04T20:57:50.989Z,95375.88
2022-08-04T21:00:39.203Z,95379.47
2022-08-04T21:03:12.286Z,95383.97
2022-08-04T21:06:00.218Z,95384.06
2022-08-04T21:08:35.293Z,95383.38
2022-08-04T21:11:23.234Z,95381.03
2022-08-04T21:13:57.300Z,95381.16
2022-08-04T21:16:54.177Z,95377.97
2022-08-04T21:19:37.872Z,95388.44
2022-08-04T21:22:33.382Z,95390.19
2022-08-04T21:25:20.233Z,95386.88
2022-08-04T21:27:55.309Z,95383.56
2022-08-04T21:30:54.764Z,95384.59
2022-08-04T21:33:49.815Z,95383.16
2022-08-04T21:36:37.245Z,95382.50
2022-08-04T21:39:11.394Z,95382.59
2022-08-04T21:42:28.898Z,95379.31
2022-08-04T21:44:51.342Z,95389.88
2022-08-04T21:47:46.208Z,95383.09
2022-08-04T21:50:23.663Z,95384.84
2022-08-04T21:53:19.873Z,95388.44
2022-08-04T21:56:06.222Z,95384.19
2022-08-04T21:58:54.249Z,95384.28
2022-08-04T22:01:50.127Z,95388.75
2022-08-04T22:04:32.247Z,95383.72
2022-08-04T22:07:19.257Z,95382.94
2022-08-04T22:10:22.503Z,95380.53
2022-08-04T22:13:22.505Z,95384.03
2022-08-04T22:16:03.904Z,95381.63
2022-08-04T22:18:53.967Z,95384.34
2022-08-04T22:21:28.248Z,95380.91
2022-08-04T22:24:15.257Z,95386.09
2022-08-04T22:26:56.249Z,95381.91
2022-08-04T22:29:50.270Z,95386.31
2022-08-04T22:32:44.342Z,95378.63
2022-08-04T22:35:48.955Z,95374.38
2022-08-04T22:38:48.687Z,95378.84
2022-08-04T22:41:48.533Z,95377.25
2022-08-04T22:44:48.273Z,95368.06
2022-08-04T22:47:42.276Z,95374.19
2022-08-04T22:50:47.268Z,95366.59
2022-08-04T22:53:41.279Z,95365.91
2022-08-04T22:56:37.852Z,95361.66
2022-08-04T22:59:19.269Z,95366.84
2022-08-04T23:02:15.299Z,95366.06
2022-08-04T23:05:02.268Z,95360.97
2022-08-04T23:07:47.112Z,95362.81
2022-08-04T23:10:36.296Z,95359.53
2022-08-04T23:13:16.273Z,95357.94
2022-08-04T23:16:11.290Z,95349.44
2022-08-04T23:19:09.973Z,95349.47
2022-08-04T23:22:02.300Z,95357.31
2022-08-04T23:24:35.372Z,95347.06
2022-08-04T23:27:23.485Z,95348.94
2022-08-04T23:30:03.298Z,95347.31
2022-08-04T23:32:50.314Z,95344.06
2022-08-04T23:35:31.311Z,95346.72
2022-08-04T23:38:31.830Z,95346.81
2022-08-04T23:41:13.771Z,95345.25
2022-08-04T23:44:00.300Z,95335.09
2022-08-04T23:46:42.278Z,95338.63
2022-08-04T23:49:40.623Z,95340.53
2022-08-04T23:52:30.121Z,95342.44
2022-08-04T23:55:19.041Z,95336.56
2022-08-04T23:58:05.587Z,95333.16
